• Join FlightAware (Why Join?)
  • Login
  • US Flag 
03:35PM EDT


 

Airport Tracker/Info


-or-


 

Live Flight TrackerFlight Track Log ✈ N503LM ✈ 07-Jan-2014 ✈ KBPT - KCRP

Flight Track Log - Related Links

Times and Time Zones

All times are in EST time to prevent confusion due to time zone crossing. See the N503LM flight status page for this flight to view local times or setup timezone preferences in your user account.

Time Position Orientation Groundspeed Altitude Reporting Facility
EST Latitude Longitude Course Direction KTS MPH feet Rate Location/Type
02:34PM 29.9136 -93.9747 133° Southeast 172 198 2,700  Level Houston Center
02:36PM 29.8586 -94.0094 209° Southwest 187 215 5,000 1,980 Climbing Houston Center
02:37PM 29.8119 -94.0339 204° Southwest 187 215 6,900 1,680 Climbing Houston Center
02:38PM 29.7633 -94.0622 207° Southwest 194 223 8,500 1,440 Climbing Houston Center
02:39PM 29.7117 -94.0892 204° Southwest 202 232 10,000 1,620 Climbing Houston Center
02:40PM 29.6569 -94.1161 203° Southwest 212 244 11,900 1,500 Climbing Houston Center
02:41PM 29.6028 -94.1369 198° South 206 237 13,100 1,260 Climbing Houston Center
02:42PM 29.5322 -94.1633 198° South 221 254 14,600 1,320 Climbing Houston Center
02:43PM 29.4764 -94.1856 199° South 222 255 15,900 1,260 Climbing Houston Center
02:44PM 29.4169 -94.2089 199° South 224 258 17,300 1,080 Climbing Houston Center
02:45PM 29.3878 -94.2628 238° Southwest 215 247 18,200 780 Climbing Houston Center
02:46PM 29.3683 -94.3394 254° West 211 243 19,000 360 Climbing Houston Center
02:47PM 29.3453 -94.4158 251° West 247 284 19,000  Level Houston Center
02:48PM 29.3214 -94.4967 251° West 264 304 19,000 240 Level Houston Center
02:49PM 29.2967 -94.5794 251° West 266 306 19,500 480 Climbing Houston Center
02:50PM 29.2744 -94.6514 251° West 252 290 20,000 240 Climbing Houston Center
02:51PM 29.2508 -94.7303 251° West 260 299 20,000  Level Houston Center
02:52PM 29.2217 -94.8272 251° West 267 307 20,000  Level Houston Center
02:53PM 29.1964 -94.9081 250° West 270 311 20,000  Level Houston Center
02:54PM 29.1719 -94.9900 251° West 271 312 20,000  Level Houston Center
02:55PM 29.1353 -95.0667 241° Southwest 272 313 20,000  Level Houston Center
02:56PM 29.0989 -95.1425 241° Southwest 272 313 20,000  Level Houston Center
02:57PM 29.0639 -95.2194 243° Southwest 273 314 20,000  Level Houston Center
02:58PM 29.0264 -95.2958 241° Southwest 274 315 20,000  Level Houston Center
02:59PM 28.9825 -95.3872 241° Southwest 274 315 20,000  Level Houston Center
03:00PM 28.9478 -95.4636 243° Southwest 272 313 20,000  Level Houston Center
03:01PM 28.9114 -95.5394 241° Southwest 272 313 20,000  Level Houston Center
03:02PM 28.8747 -95.6147 241° Southwest 271 312 20,000  Level Houston Center
03:03PM 28.8394 -95.6906 242° Southwest 272 313 20,000  Level Houston Center
03:05PM 28.8031 -95.7675 242° Southwest 274 315 20,000  Level Houston Center
03:06PM 28.7581 -95.8589 241° Southwest 275 316 20,000 -60 Level Houston Center
03:07PM 28.7219 -95.9369 242° Southwest 278 320 19,900 -360 Descending Houston Center
03:08PM 28.6794 -96.0208 240° Southwest 287 330 19,300 -540 Descending Houston Center
03:09PM 28.6419 -96.1011 242° Southwest 286 329 18,900 -420 Descending Houston Center
03:10PM 28.6033 -96.1806 241° Southwest 287 330 18,500 -360 Descending Houston Center
03:11PM 28.5661 -96.2592 242° Southwest 284 327 18,200 -240 Descending Houston Center
03:12PM 28.5269 -96.3367 240° Southwest 283 326 18,100 -360 Descending Houston Center
03:13PM 28.4806 -96.4325 241° Southwest 287 330 17,500 -1,080 Descending Houston Center
03:14PM 28.4414 -96.5142 241° Southwest 294 338 15,900 -1,500 Descending Houston Center
03:14PM 28.4319 -96.5331 240° Southwest 296 341 15,600 -1,500 Descending Houston Center
03:15PM 28.4014 -96.5961 241° Southwest 296 341 14,400 -1,680 Descending Houston Center
03:16PM 28.3625 -96.6736 240° Southwest 288 331 12,700 -1,800 Descending Houston Center
03:16PM 28.3564 -96.6844 237° Southwest 282 325 12,500 -1,260 Descending Houston Center
03:17PM 28.3189 -96.7469 236° Southwest 282 325 11,400 -1,320 Descending Houston Center
03:17PM 28.3103 -96.7603 234° Southwest 278 320 11,200 -1,080 Descending Houston Center
03:18PM 28.2772 -96.8197 238° Southwest 278 320 10,300 -1,080 Descending Houston Center
03:18PM 28.2719 -96.8300 240° Southwest 277 319 10,100 -1,140 Descending Houston Center
03:19PM 28.2278 -96.9053 236° Southwest 274 315 9,200 -900 Descending Houston Center
03:19PM 28.2261 -96.9047 164° South 272 313 9,200 -900 Level Houston Center
03:20PM 28.1942 -96.9622 238° Southwest 271 312 8,500 -900 Descending Houston Center
03:20PM 28.1844 -96.9792 237° Southwest 273 314 8,300 -780 Descending Houston Center
03:21PM 28.1467 -97.0475 238° Southwest 263 303 7,600 -720 Descending Houston Center
03:21PM 28.1444 -97.0489 209° Southwest 261 300 7,600 -1,020 Level Houston Center
03:22PM 28.1117 -97.1092 238° Southwest 240 276 6,500 -1,260 Descending Houston Center
03:22PM 28.1044 -97.1200 233° Southwest 222 255 6,200 -1,800 Descending Houston Center
03:23PM 28.0778 -97.1642 236° Southwest 223 257 5,100 -1,320 Descending Houston Center
03:23PM 28.0756 -97.1669 228° Southwest 228 262 5,000 -900 Descending Houston Center
03:24PM 28.0406 -97.2286 237° Southwest 259 298 4,200 -900 Descending Houston Center
03:24PM 28.0372 -97.2356 241° Southwest 248 285 4,100 -840 Descending Houston Center
03:25PM 27.9964 -97.3058 237° Southwest 264 304 3,300 -960 Descending Houston Center
03:25PM 27.9886 -97.3175 233° Southwest 255 293 3,100 -300 Descending Houston Center
03:26PM 27.9539 -97.3783 237° Southwest 267 307 3,000 -120 Descending Houston Center
03:26PM 27.9467 -97.3889 232° Southwest 261 300 3,000  Level Houston Center
03:27PM 27.9097 -97.4556 238° Southwest 257 296 3,000  Level Houston Center
03:27PM 27.9067 -97.4578 213° Southwest 261 300 3,000 -840 Level Houston Center
03:28PM 27.8644 -97.5300 237° Southwest 252 290 2,100 -720 Descending Houston Center
03:29PM 27.8161 -97.5525 202° Southwest 207 238 1,600 -780 Descending Houston Center
03:30PM 27.7914 -97.5289 140° Southeast 124 143 600 -660 Descending Houston Center
03:31PM 27.7722 -97.5097 138° Southeast 115 132 300 -300 Descending Houston Center
03:33PM 27.7667 -97.5000 204° Southwest  Level FlightAware Approximate